KR-0319 weather

Doosan We’ve Poseidon Heliports
Busan, Busan Gwang'yeogsi, South Korea

Public forecast

Using degrees Celsius for public forecast. Weather courtesy of forecast.io.

Closest aviation weather report (METAR) to Doosan We’ve Poseidon Heliports

Closest report is Gimhae International Airport, 10.2 nm (18.9 km) W. Retrieved 2020/08/06 22:00 UTC (1 minute ago):

RKPK 062200Z 17005KT 9000 FEW010 SCT015 BKN030 27/24 Q1008

Closest aviation forecast (TAF) to Doosan We’ve Poseidon Heliports

Closest forecast is Gimhae International Airport, 10.2 nm (18.9 km) W. Retrieved 2020/08/06 18:00 UTC (4 hours ago):

TAF RKPK 061700Z 0618/0724 21006KT 8000 BKN015 BKN030 TN24/0621Z TX27/0706Z BECMG 0621/0622 21010KT 4800 -RA BR